Terminal Aerodrome Forecast
Issued by NWS

Home | Current Version | Previous Version | Graphics & Text | Print | Product List | Glossary On
Versions: 1 2 3 4 5 6 7 8 9 10 11 12 13 14
922
FTUS43 KBIS 251913 AAA
TAFJMS
TAF AMD
KJMS 251913Z 2519/2618 31008KT P6SM SCT035 BKN050
     FM260300 24004KT P6SM FEW060
     FM261600 22008KT P6SM SCT080=

USA.gov is the U.S. government's official web portal to all federal, state and local government web resources and services.